Time;durP1;ratioP1;P1;durP2;ratioP2;P2;SDS_P1;SDS_P2;PMS_P1;PMS_P2;Temp;Humidity;BMP_temperature;BMP_pressure;BME280_temperature;BME280_humidity;BME280_pressure;Samples;Min_cycle;Max_cycle;Signal;HPM_P1;HPM_P2
2023/03/06 00:00:39;;;;;;;17.58;15.40;;;6.30;99.90;;;;;;2034646;29;20028;-73
2023/03/06 00:01:40;;;;;;;17.00;15.05;;;6.30;99.90;;;;;;2025217;29;20051;-73
2023/03/06 00:02:41;;;;;;;20.60;15.40;;;6.30;99.90;;;;;;2030228;29;20032;-73
2023/03/06 00:03:41;;;;;;;18.48;15.95;;;6.30;99.90;;;;;;2035851;29;20067;-73
2023/03/06 00:04:42;;;;;;;16.48;14.77;;;6.30;99.90;;;;;;2027144;29;20107;-73
2023/03/06 00:05:42;;;;;;;18.83;16.48;;;6.30;99.90;;;;;;2026764;29;20028;-73
2023/03/06 00:06:43;;;;;;;18.65;16.10;;;6.30;99.90;;;;;;2036058;29;20036;-73
2023/03/06 00:07:44;;;;;;;18.83;16.48;;;6.20;99.90;;;;;;2036522;29;20027;-73
2023/03/06 00:08:44;;;;;;;17.80;14.93;;;6.20;99.90;;;;;;2036238;29;20067;-73
2023/03/06 00:09:45;;;;;;;17.80;15.93;;;6.20;99.90;;;;;;2035492;29;20147;-73
2023/03/06 00:10:45;;;;;;;17.95;16.20;;;6.20;99.90;;;;;;2036298;29;20083;-73
2023/03/06 00:11:46;;;;;;;19.25;17.05;;;6.30;99.90;;;;;;2033758;29;20134;-73
2023/03/06 00:12:46;;;;;;;25.40;18.27;;;6.30;99.90;;;;;;2036041;29;20028;-73
2023/03/06 00:13:47;;;;;;;22.33;19.10;;;6.20;99.90;;;;;;2037030;29;20035;-73
2023/03/06 00:14:47;;;;;;;21.92;17.40;;;6.30;99.90;;;;;;2034309;29;20036;-73
2023/03/06 00:15:48;;;;;;;21.23;18.10;;;6.30;99.90;;;;;;2037157;29;20119;-73
2023/03/06 00:16:48;;;;;;;20.27;18.05;;;6.30;99.90;;;;;;2034099;29;20510;-73
2023/03/06 00:17:49;;;;;;;19.17;17.17;;;6.30;99.90;;;;;;2035579;29;20043;-73
2023/03/06 00:18:51;;;;;;;22.55;18.50;;;6.30;99.90;;;;;;2038350;29;20028;-73
2023/03/06 00:19:51;;;;;;;18.08;16.17;;;6.30;99.90;;;;;;2036822;29;20036;-73
2023/03/06 00:20:52;;;;;;;22.10;18.83;;;6.30;99.90;;;;;;2036043;29;20720;-73
2023/03/06 00:21:53;;;;;;;22.08;19.60;;;6.30;99.90;;;;;;2036482;29;20127;-73
2023/03/06 00:22:55;;;;;;;24.13;20.45;;;6.30;99.90;;;;;;2036745;29;20039;-73
2023/03/06 00:23:56;;;;;;;23.60;20.27;;;6.30;99.90;;;;;;2036319;29;20463;-73
2023/03/06 00:24:56;;;;;;;26.05;19.98;;;6.30;99.90;;;;;;2034246;29;20495;-73
2023/03/06 00:25:57;;;;;;;25.23;20.90;;;6.30;99.90;;;;;;2034798;29;20473;-73
2023/03/06 00:26:57;;;;;;;24.95;22.30;;;6.30;99.90;;;;;;2036659;29;20067;-73
2023/03/06 00:27:58;;;;;;;26.70;23.00;;;6.30;99.90;;;;;;2033945;29;20027;-73
2023/03/06 00:28:58;;;;;;;25.08;22.38;;;6.30;99.90;;;;;;2034480;29;20047;-73
2023/03/06 00:30:00;;;;;;;27.67;22.23;;;6.30;99.90;;;;;;2035814;29;20032;-73
2023/03/06 00:31:01;;;;;;;28.95;23.58;;;6.30;99.90;;;;;;2035730;29;20094;-73
2023/03/06 00:32:02;;;;;;;27.73;23.10;;;6.30;99.90;;;;;;2035345;29;20517;-73
2023/03/06 00:33:03;;;;;;;28.13;22.00;;;6.30;99.90;;;;;;2026603;29;20384;-73
2023/03/06 00:34:03;;;;;;;26.35;21.42;;;6.30;99.90;;;;;;2028984;29;20106;-73
2023/03/06 00:35:04;;;;;;;27.20;22.88;;;6.30;99.90;;;;;;2036878;29;20110;-73
2023/03/06 00:36:05;;;;;;;24.25;21.30;;;6.30;99.90;;;;;;2037691;29;20110;-73
2023/03/06 00:37:06;;;;;;;23.85;21.38;;;6.30;99.90;;;;;;2028356;29;20028;-73
2023/03/06 00:38:08;;;;;;;22.20;19.90;;;6.30;99.90;;;;;;2029252;29;20099;-73
2023/03/06 00:39:09;;;;;;;23.90;21.33;;;6.30;99.90;;;;;;2035753;29;20024;-73
2023/03/06 00:40:13;;;;;;;25.70;22.55;;;6.30;99.90;;;;;;2035889;29;20024;-73
2023/03/06 00:41:14;;;;;;;25.55;22.90;;;6.30;99.90;;;;;;2035379;29;20023;-73
2023/03/06 00:42:16;;;;;;;29.80;24.55;;;6.20;99.90;;;;;;2035771;29;20028;-73
2023/03/06 00:43:16;;;;;;;27.27;23.73;;;6.30;99.90;;;;;;2035992;29;20376;-73
2023/03/06 00:44:17;;;;;;;31.17;25.70;;;6.30;99.90;;;;;;2035207;29;20050;-73
2023/03/06 00:45:17;;;;;;;29.33;25.63;;;6.30;99.90;;;;;;2037187;29;20019;-73
2023/03/06 00:46:18;;;;;;;31.70;26.92;;;6.30;99.90;;;;;;2036812;29;21207;-73
2023/03/06 00:47:18;;;;;;;34.90;26.80;;;6.20;99.90;;;;;;2036298;29;20152;-73
2023/03/06 00:48:19;;;;;;;32.10;28.42;;;6.20;99.90;;;;;;2037663;29;20036;-73
2023/03/06 00:49:20;;;;;;;29.95;26.27;;;6.20;99.90;;;;;;2037042;29;20226;-73
2023/03/06 00:50:20;;;;;;;36.67;30.58;;;6.30;99.90;;;;;;2036696;29;20024;-73
2023/03/06 00:51:21;;;;;;;33.55;28.77;;;6.20;99.90;;;;;;2036457;29;20027;-73
2023/03/06 00:52:22;;;;;;;37.80;32.65;;;6.30;99.90;;;;;;2035960;29;20028;-73
2023/03/06 00:53:22;;;;;;;37.38;31.50;;;6.30;99.90;;;;;;2035972;29;20479;-73
2023/03/06 00:54:23;;;;;;;33.70;29.63;;;6.30;99.90;;;;;;2036258;29;20024;-73
2023/03/06 00:55:23;;;;;;;36.30;30.05;;;6.30;99.90;;;;;;2036133;29;20032;-73
2023/03/06 00:56:24;;;;;;;39.83;31.90;;;6.30;99.90;;;;;;2037747;29;20502;-73
2023/03/06 00:57:25;;;;;;;37.15;31.95;;;6.30;99.90;;;;;;2037447;29;20024;-73
2023/03/06 00:58:25;;;;;;;38.03;32.25;;;6.30;99.90;;;;;;2038003;29;20365;-73
2023/03/06 00:59:26;;;;;;;38.03;32.15;;;6.20;99.90;;;;;;2038934;29;20049;-73
2023/03/06 01:00:27;;;;;;;36.20;31.02;;;6.30;99.90;;;;;;2036430;29;20042;-73
2023/03/06 01:01:28;;;;;;;37.33;31.63;;;6.20;99.90;;;;;;2036703;29;20119;-73
2023/03/06 01:02:28;;;;;;;37.88;30.92;;;6.20;99.90;;;;;;2037630;29;20027;-73
2023/03/06 01:03:29;;;;;;;38.63;31.58;;;6.20;99.90;;;;;;2035912;29;20034;-73
2023/03/06 01:04:30;;;;;;;38.03;31.98;;;6.30;99.90;;;;;;2028853;29;20024;-73
2023/03/06 01:05:33;;;;;;;39.17;30.90;;;6.20;99.90;;;;;;2026958;29;20032;-73
2023/03/06 01:06:34;;;;;;;38.30;31.08;;;6.20;99.90;;;;;;2036821;29;20044;-73
2023/03/06 01:07:35;;;;;;;37.08;30.00;;;6.30;99.90;;;;;;2035612;29;20027;-73
2023/03/06 01:08:36;;;;;;;33.45;29.63;;;6.20;99.90;;;;;;2034416;29;20063;-73
2023/03/06 01:09:36;;;;;;;33.08;28.60;;;6.30;99.90;;;;;;2036620;29;20466;-73
2023/03/06 01:10:38;;;;;;;33.20;28.38;;;6.30;99.90;;;;;;2035672;29;20048;-73
2023/03/06 01:11:39;;;;;;;34.70;29.23;;;6.30;99.90;;;;;;2039176;29;20521;-73
2023/03/06 01:12:40;;;;;;;33.67;29.00;;;6.30;99.90;;;;;;2036525;29;20019;-73
2023/03/06 01:13:40;;;;;;;35.97;28.50;;;6.30;99.90;;;;;;2036536;29;20035;-73
2023/03/06 01:14:41;;;;;;;32.63;27.10;;;6.30;99.90;;;;;;2037040;29;20031;-73
2023/03/06 01:15:41;;;;;;;33.67;26.40;;;6.20;99.90;;;;;;2037787;29;20032;-73
2023/03/06 01:16:42;;;;;;;31.55;27.20;;;6.20;99.90;;;;;;2037024;29;20455;-73
2023/03/06 01:17:42;;;;;;;30.48;27.27;;;6.20;99.90;;;;;;2038003;29;20028;-73
2023/03/06 01:18:44;;;;;;;29.70;26.63;;;6.20;99.90;;;;;;2036529;29;20058;-73
2023/03/06 01:19:45;;;;;;;29.85;26.33;;;6.20;99.90;;;;;;2035930;29;20035;-73
2023/03/06 01:20:45;;;;;;;29.58;25.08;;;6.20;99.90;;;;;;2036801;29;20111;-73
2023/03/06 01:21:46;;;;;;;29.77;25.15;;;6.20;99.90;;;;;;2036018;29;20526;-73
2023/03/06 01:22:46;;;;;;;28.33;24.42;;;6.20;99.90;;;;;;2038323;29;20032;-73
2023/03/06 01:23:47;;;;;;;28.42;24.50;;;6.20;99.90;;;;;;2034910;29;20059;-73
2023/03/06 01:24:47;;;;;;;27.23;23.33;;;6.20;99.90;;;;;;2038819;29;20087;-72
2023/03/06 01:25:48;;;;;;;26.90;22.55;;;6.20;99.90;;;;;;2037406;29;20035;-73
2023/03/06 01:26:48;;;;;;;24.00;21.13;;;6.20;99.90;;;;;;2037286;29;20035;-73
2023/03/06 01:27:49;;;;;;;27.08;22.77;;;6.20;99.90;;;;;;2036917;29;20046;-73
2023/03/06 01:28:49;;;;;;;25.20;22.50;;;6.20;99.90;;;;;;2028186;29;20039;-73
2023/03/06 01:29:50;;;;;;;26.42;23.58;;;6.20;99.90;;;;;;2027780;29;20436;-73
2023/03/06 01:30:50;;;;;;;25.80;23.05;;;6.20;99.90;;;;;;2037523;29;20028;-73
2023/03/06 01:31:51;;;;;;;25.58;22.77;;;6.20;99.90;;;;;;2035007;29;20841;-73
2023/03/06 01:32:52;;;;;;;26.30;23.50;;;6.20;99.90;;;;;;2036000;29;20040;-73
2023/03/06 01:33:52;;;;;;;26.67;23.80;;;6.20;99.90;;;;;;2035088;29;20131;-73
2023/03/06 01:34:53;;;;;;;26.75;23.85;;;6.20;99.90;;;;;;2027717;29;20090;-73
2023/03/06 01:35:53;;;;;;;26.90;24.10;;;6.20;99.90;;;;;;2028435;29;20035;-73
2023/03/06 01:36:54;;;;;;;28.52;23.67;;;6.20;99.90;;;;;;2035003;29;20036;-73
2023/03/06 01:37:54;;;;;;;25.08;22.42;;;6.10;99.90;;;;;;2036950;29;20042;-73
2023/03/06 01:38:55;;;;;;;26.33;21.85;;;6.10;99.90;;;;;;2037756;29;20020;-73
2023/03/06 01:39:55;;;;;;;23.20;20.40;;;6.10;99.90;;;;;;2036554;29;20091;-73
2023/03/06 01:40:56;;;;;;;23.20;20.77;;;6.10;99.90;;;;;;2037173;29;20027;-73
2023/03/06 01:41:56;;;;;;;23.63;20.88;;;6.10;99.90;;;;;;2036686;29;20042;-73
2023/03/06 01:42:57;;;;;;;28.33;22.20;;;6.10;99.90;;;;;;2036081;29;20031;-73
2023/03/06 01:43:58;;;;;;;30.23;23.40;;;6.10;99.90;;;;;;2036045;29;20770;-73
2023/03/06 01:45:11;;;;;;;26.38;23.35;;;6.10;99.90;;;;;;2035749;29;20086;-73
2023/03/06 01:46:27;;;;;;;25.88;23.27;;;6.20;99.90;;;;;;2036749;29;20070;-73
2023/03/06 01:47:27;;;;;;;24.52;21.92;;;6.10;99.90;;;;;;2035834;29;20030;-73
2023/03/06 01:48:28;;;;;;;26.85;23.63;;;6.10;99.90;;;;;;2035801;29;20821;-73
2023/03/06 01:49:36;;;;;;;24.13;21.70;;;6.10;99.90;;;;;;2035882;29;20658;-73
2023/03/06 01:50:36;;;;;;;24.75;21.67;;;6.10;99.90;;;;;;2034927;29;20032;-73
2023/03/06 01:51:49;;;;;;;24.15;21.63;;;6.10;99.90;;;;;;2034598;29;20171;-73
2023/03/06 01:52:52;;;;;;;24.25;21.67;;;6.20;99.90;;;;;;2035188;29;20034;-73
2023/03/06 01:53:54;;;;;;;24.70;20.48;;;6.10;99.90;;;;;;2035180;29;20166;-73
2023/03/06 01:55:23;;;;;;;22.85;20.50;;;6.20;99.90;;;;;;2034433;29;20054;-73
2023/03/06 01:56:24;;;;;;;23.10;19.48;;;6.20;99.90;;;;;;2031842;29;20032;-73
2023/03/06 01:57:53;;;;;;;24.90;22.20;;;6.20;99.90;;;;;;2034832;29;20028;-73
2023/03/06 01:58:54;;;;;;;21.52;19.25;;;6.20;99.90;;;;;;2029461;29;20158;-73
2023/03/06 02:00:02;;;;;;;22.63;20.08;;;6.10;99.90;;;;;;2035246;29;20035;-72
2023/03/06 02:01:03;;;;;;;22.48;19.58;;;6.10;99.90;;;;;;2030577;29;20057;-73
2023/03/06 02:02:07;;;;;;;19.75;17.77;;;6.10;99.90;;;;;;2029528;29;20039;-73
2023/03/06 02:03:19;;;;;;;19.80;17.70;;;6.10;99.90;;;;;;2037798;29;20035;-73
2023/03/06 02:04:20;;;;;;;20.77;18.52;;;6.10;99.90;;;;;;2037240;29;20032;-73
2023/03/06 02:05:21;;;;;;;19.00;16.95;;;6.00;99.90;;;;;;2036169;29;20043;-73
2023/03/06 02:06:21;;;;;;;19.73;17.60;;;6.10;99.90;;;;;;2036969;29;20754;-73
2023/03/06 02:07:22;;;;;;;18.45;16.33;;;6.10;99.90;;;;;;2027563;29;20095;-73
2023/03/06 02:08:23;;;;;;;18.73;16.67;;;6.10;99.90;;;;;;2019360;29;20033;-73
2023/03/06 02:09:28;;;;;;;18.70;15.18;;;6.10;99.90;;;;;;2026769;29;20506;-73
2023/03/06 02:10:29;;;;;;;19.77;15.00;;;6.10;99.90;;;;;;2035862;29;20024;-73
2023/03/06 02:11:29;;;;;;;18.23;14.07;;;6.10;99.90;;;;;;2036541;29;20078;-72
2023/03/06 02:12:30;;;;;;;20.00;14.45;;;6.10;99.90;;;;;;2037299;29;20020;-72
2023/03/06 02:13:31;;;;;;;16.58;13.45;;;6.10;99.90;;;;;;2036380;29;20049;-73
2023/03/06 02:14:31;;;;;;;16.65;13.32;;;6.10;99.90;;;;;;2035921;29;20036;-73
2023/03/06 02:15:32;;;;;;;14.27;12.77;;;6.10;99.90;;;;;;2035732;29;20028;-73
2023/03/06 02:16:33;;;;;;;15.82;13.93;;;6.10;99.90;;;;;;2044168;29;20412;-73
2023/03/06 02:17:34;;;;;;;15.07;13.38;;;6.10;99.90;;;;;;2043665;29;20024;-73
2023/03/06 02:18:37;;;;;;;15.02;13.52;;;6.10;99.90;;;;;;2036431;29;20031;-73
2023/03/06 02:19:53;;;;;;;14.43;12.93;;;6.10;99.90;;;;;;2035681;29;20217;-73
2023/03/06 02:21:01;;;;;;;14.55;13.07;;;6.10;99.90;;;;;;2036299;29;20034;-73
2023/03/06 02:22:02;;;;;;;15.13;12.90;;;6.10;99.90;;;;;;2028868;29;20154;-73
2023/03/06 02:23:12;;;;;;;14.68;13.27;;;6.10;99.90;;;;;;2030807;29;20128;-73
2023/03/06 02:24:38;;;;;;;15.68;13.70;;;6.10;99.90;;;;;;2037217;29;20598;-73
2023/03/06 02:25:47;;;;;;;15.88;14.20;;;6.10;99.90;;;;;;2036969;29;20049;-73
2023/03/06 02:26:48;;;;;;;19.58;15.00;;;6.10;99.90;;;;;;2036917;29;20027;-73
2023/03/06 02:27:49;;;;;;;17.60;15.63;;;6.00;99.90;;;;;;2028603;29;20479;-73
2023/03/06 02:28:49;;;;;;;16.10;14.50;;;6.00;99.90;;;;;;2024479;29;20055;-73
2023/03/06 02:29:50;;;;;;;17.60;15.30;;;6.00;99.90;;;;;;2035872;29;20063;-73
2023/03/06 02:30:53;;;;;;;17.20;15.43;;;6.00;99.90;;;;;;2036352;29;20040;-73
2023/03/06 02:31:53;;;;;;;17.00;15.32;;;6.10;99.90;;;;;;2035984;29;20040;-73
2023/03/06 02:32:54;;;;;;;17.17;15.48;;;6.10;99.90;;;;;;2036804;29;20199;-73
2023/03/06 02:34:22;;;;;;;18.13;15.93;;;6.10;99.90;;;;;;2035998;29;20027;-73
2023/03/06 02:35:29;;;;;;;17.60;15.45;;;6.10;99.90;;;;;;2024738;29;20043;-73
2023/03/06 02:36:32;;;;;;;16.13;14.35;;;6.10;99.90;;;;;;2034571;29;20028;-73
2023/03/06 02:37:32;;;;;;;17.52;15.23;;;6.00;99.90;;;;;;2035606;29;20028;-73
2023/03/06 02:38:39;;;;;;;17.92;16.13;;;6.10;99.90;;;;;;2035609;29;20020;-73
2023/03/06 02:39:45;;;;;;;17.15;15.23;;;6.10;99.90;;;;;;2036526;29;20538;-73
2023/03/06 02:40:49;;;;;;;18.02;16.00;;;6.00;99.90;;;;;;2036922;29;20035;-73
2023/03/06 02:41:49;;;;;;;19.48;15.75;;;6.00;99.90;;;;;;2028422;29;20032;-73
2023/03/06 02:42:55;;;;;;;19.20;17.20;;;6.00;99.90;;;;;;2030675;29;20036;-73
2023/03/06 02:43:55;;;;;;;20.92;17.55;;;6.00;99.90;;;;;;2034511;29;20135;-73
2023/03/06 02:44:59;;;;;;;20.27;18.10;;;6.00;99.90;;;;;;2035724;29;20043;-73
2023/03/06 02:46:00;;;;;;;22.05;19.77;;;6.00;99.90;;;;;;2036917;29;20075;-73
2023/03/06 02:47:01;;;;;;;21.33;19.15;;;6.00;99.90;;;;;;2035780;29;20528;-72
2023/03/06 02:48:02;;;;;;;21.00;18.85;;;5.90;99.90;;;;;;2034325;29;20154;-73
2023/03/06 02:49:03;;;;;;;20.58;18.55;;;5.90;99.90;;;;;;2035222;29;20377;-72
2023/03/06 02:50:03;;;;;;;21.88;19.63;;;5.90;99.90;;;;;;2036780;29;20121;-73
2023/03/06 02:51:04;;;;;;;21.65;19.50;;;5.90;99.90;;;;;;2035949;29;20083;-72
2023/03/06 02:52:06;;;;;;;21.73;19.63;;;5.80;99.90;;;;;;2035797;29;20067;-73
2023/03/06 02:53:07;;;;;;;23.65;20.08;;;5.80;99.90;;;;;;2036067;29;20474;-73
2023/03/06 02:54:08;;;;;;;22.30;19.77;;;5.90;99.90;;;;;;2036028;29;20074;-73
2023/03/06 02:55:08;;;;;;;22.08;19.83;;;5.80;99.90;;;;;;2035197;29;20168;-73
2023/03/06 02:56:09;;;;;;;22.15;19.80;;;5.80;99.90;;;;;;2037711;29;20099;-73
2023/03/06 02:57:09;;;;;;;22.23;19.95;;;5.90;99.90;;;;;;2036812;29;20028;-73
2023/03/06 02:58:10;;;;;;;23.90;21.45;;;5.80;99.90;;;;;;2034904;29;20032;-73
2023/03/06 02:59:11;;;;;;;23.90;21.40;;;5.90;99.90;;;;;;2036136;29;20539;-73
2023/03/06 03:00:13;;;;;;;24.80;22.20;;;5.90;99.90;;;;;;2034608;29;22080;-73
2023/03/06 03:01:14;;;;;;;23.33;20.95;;;5.80;99.90;;;;;;2033334;29;20106;-73
2023/03/06 03:02:14;;;;;;;22.60;20.30;;;5.90;99.90;;;;;;2034883;29;20024;-73
2023/03/06 03:03:15;;;;;;;24.92;22.33;;;5.90;99.90;;;;;;2036582;29;20030;-73
2023/03/06 03:04:16;;;;;;;24.27;21.70;;;5.90;99.90;;;;;;2037142;29;20046;-73
2023/03/06 03:05:16;;;;;;;24.23;21.73;;;5.90;99.90;;;;;;2035333;29;20030;-72
2023/03/06 03:06:17;;;;;;;24.45;21.95;;;5.90;99.90;;;;;;2036044;29;20023;-72
2023/03/06 03:07:17;;;;;;;23.70;21.30;;;5.80;99.90;;;;;;2036833;29;20032;-72
2023/03/06 03:08:18;;;;;;;22.98;20.52;;;5.80;99.90;;;;;;2035705;29;20022;-73
2023/03/06 03:09:18;;;;;;;25.02;22.48;;;5.80;99.90;;;;;;2035956;29;20039;-72
2023/03/06 03:10:19;;;;;;;23.25;20.17;;;5.90;99.90;;;;;;2037014;29;20016;-72
2023/03/06 03:11:19;;;;;;;22.48;20.05;;;5.80;99.90;;;;;;2036902;29;20019;-73
2023/03/06 03:12:21;;;;;;;22.38;20.17;;;5.80;99.90;;;;;;2036973;29;20376;-73
2023/03/06 03:13:22;;;;;;;21.95;19.70;;;5.80;99.90;;;;;;2035993;29;20189;-73
2023/03/06 03:14:23;;;;;;;22.52;20.15;;;5.80;99.90;;;;;;2035113;29;20031;-73
2023/03/06 03:15:24;;;;;;;21.88;19.52;;;5.80;99.90;;;;;;2036902;29;20032;-73
2023/03/06 03:16:25;;;;;;;22.27;19.88;;;5.80;99.90;;;;;;2034675;29;20032;-73
2023/03/06 03:17:25;;;;;;;23.30;20.80;;;5.80;99.90;;;;;;2035538;29;20032;-73
2023/03/06 03:18:26;;;;;;;21.33;19.13;;;5.80;99.90;;;;;;2035634;29;20554;-73
2023/03/06 03:19:27;;;;;;;21.75;19.13;;;5.80;99.90;;;;;;2035116;29;20813;-72
2023/03/06 03:20:27;;;;;;;20.85;18.65;;;5.80;99.90;;;;;;2034327;29;20095;-72
2023/03/06 03:21:28;;;;;;;20.25;18.20;;;5.80;99.90;;;;;;2036543;29;20058;-73
2023/03/06 03:22:28;;;;;;;22.05;19.85;;;5.80;99.90;;;;;;2036289;29;20551;-72
2023/03/06 03:23:29;;;;;;;22.20;19.50;;;5.70;99.90;;;;;;2036237;29;20026;-72
2023/03/06 03:24:29;;;;;;;22.42;19.65;;;5.70;99.90;;;;;;2037528;29;20028;-72
2023/03/06 03:25:30;;;;;;;22.40;19.95;;;5.70;99.90;;;;;;2034872;29;20028;-72
2023/03/06 03:26:30;;;;;;;21.52;19.27;;;5.70;99.90;;;;;;2035350;29;20031;-72
2023/03/06 03:27:31;;;;;;;21.65;19.35;;;5.70;99.90;;;;;;2037123;29;20236;-73
2023/03/06 03:28:32;;;;;;;20.13;18.00;;;5.70;99.90;;;;;;2034661;29;20028;-73
2023/03/06 03:29:32;;;;;;;22.15;19.65;;;5.80;99.90;;;;;;2037077;29;20027;-73
2023/03/06 03:30:33;;;;;;;21.70;19.02;;;5.80;99.90;;;;;;2034797;29;20043;-73
2023/03/06 03:31:33;;;;;;;23.00;19.13;;;5.80;99.90;;;;;;2035801;29;20027;-73
2023/03/06 03:32:34;;;;;;;22.98;20.15;;;5.80;99.90;;;;;;2034283;29;20464;-73
2023/03/06 03:33:35;;;;;;;21.55;19.42;;;5.80;99.90;;;;;;2036224;29;20051;-73
2023/03/06 03:34:35;;;;;;;22.23;19.95;;;5.80;99.90;;;;;;2033131;29;20020;-73
2023/03/06 03:35:36;;;;;;;20.52;18.35;;;5.80;99.90;;;;;;2034499;29;20040;-73
2023/03/06 03:36:37;;;;;;;22.50;19.40;;;5.80;99.90;;;;;;2033972;29;20074;-73
2023/03/06 03:37:38;;;;;;;18.88;16.90;;;5.80;99.90;;;;;;2035989;29;20163;-73
2023/03/06 03:38:38;;;;;;;21.42;19.08;;;5.80;99.90;;;;;;2036220;29;20028;-73
2023/03/06 03:39:39;;;;;;;21.33;19.13;;;5.90;99.90;;;;;;2034984;29;20059;-73
2023/03/06 03:40:39;;;;;;;20.50;18.40;;;5.90;99.90;;;;;;2035029;29;20028;-73
2023/03/06 03:41:40;;;;;;;22.42;19.23;;;5.90;99.90;;;;;;2034942;29;20045;-73
2023/03/06 03:42:41;;;;;;;21.75;19.55;;;5.90;99.90;;;;;;2034511;29;20153;-73
2023/03/06 03:43:41;;;;;;;20.10;18.02;;;5.90;99.90;;;;;;2025912;29;20032;-73
2023/03/06 03:44:42;;;;;;;21.08;18.80;;;5.90;99.90;;;;;;2026138;29;20024;-73
2023/03/06 03:45:43;;;;;;;20.95;18.75;;;5.90;99.90;;;;;;2036026;29;20031;-73
2023/03/06 03:46:43;;;;;;;21.23;19.00;;;5.90;99.90;;;;;;2035796;29;20045;-73
2023/03/06 03:47:44;;;;;;;21.13;18.98;;;5.90;99.90;;;;;;2035580;29;20051;-73
2023/03/06 03:48:44;;;;;;;21.50;18.48;;;5.80;99.90;;;;;;2035320;29;20044;-73
2023/03/06 03:49:45;;;;;;;20.50;18.30;;;5.90;99.90;;;;;;2040876;28;20952;-73
2023/03/06 03:50:45;;;;;;;18.55;16.55;;;5.80;99.90;;;;;;2041667;28;20036;-73
2023/03/06 03:51:46;;;;;;;19.88;17.75;;;5.80;99.90;;;;;;2034522;29;20505;-73
2023/03/06 03:52:46;;;;;;;21.75;18.92;;;5.80;99.90;;;;;;2034924;29;20036;-73
2023/03/06 03:53:48;;;;;;;20.42;18.10;;;5.80;99.90;;;;;;2037341;29;20023;-73
2023/03/06 03:54:48;;;;;;;21.05;18.70;;;5.80;99.90;;;;;;2035894;29;20024;-73
2023/03/06 03:55:49;;;;;;;22.15;19.98;;;5.80;99.90;;;;;;2035230;29;20039;-73
2023/03/06 03:56:49;;;;;;;21.13;18.25;;;5.80;99.90;;;;;;2037193;29;20750;-73
2023/03/06 03:57:50;;;;;;;22.08;19.75;;;5.80;99.90;;;;;;2035170;29;20027;-73
2023/03/06 03:58:51;;;;;;;21.67;19.48;;;5.80;99.90;;;;;;2036394;29;20111;-73
2023/03/06 03:59:52;;;;;;;21.42;18.85;;;5.80;99.90;;;;;;2033555;29;20415;-73
2023/03/06 04:00:53;;;;;;;23.00;19.60;;;5.90;99.90;;;;;;2036020;29;20051;-73
2023/03/06 04:01:54;;;;;;;21.55;19.25;;;5.90;99.90;;;;;;2036368;29;20031;-73
2023/03/06 04:02:55;;;;;;;24.50;21.05;;;5.90;99.90;;;;;;2035046;29;20024;-73
2023/03/06 04:03:55;;;;;;;23.40;20.90;;;5.90;99.90;;;;;;2036382;29;20098;-73
2023/03/06 04:04:56;;;;;;;22.48;20.02;;;5.90;99.90;;;;;;2025514;29;20028;-73
2023/03/06 04:05:56;;;;;;;22.33;20.02;;;5.80;99.90;;;;;;2027514;29;20115;-73
2023/03/06 04:06:57;;;;;;;24.38;21.02;;;5.90;99.90;;;;;;2034960;29;20028;-73
2023/03/06 04:07:58;;;;;;;22.13;19.83;;;5.90;99.90;;;;;;2035683;29;20024;-73
2023/03/06 04:08:58;;;;;;;24.13;20.73;;;5.90;99.90;;;;;;2037571;29;20031;-73
2023/03/06 04:09:59;;;;;;;24.83;21.08;;;5.90;99.90;;;;;;2036885;29;20074;-73
2023/03/06 04:10:59;;;;;;;23.52;21.02;;;5.90;99.90;;;;;;2036218;29;20055;-73
2023/03/06 04:12:00;;;;;;;22.60;20.30;;;5.90;99.90;;;;;;2034286;29;20036;-73
2023/03/06 04:13:00;;;;;;;22.55;19.70;;;5.90;99.90;;;;;;2038113;29;20059;-73
2023/03/06 04:14:02;;;;;;;20.40;18.40;;;5.80;99.90;;;;;;2038855;29;20027;-72
2023/03/06 04:15:04;;;;;;;20.58;18.40;;;5.80;99.90;;;;;;2037203;29;20031;-72
2023/03/06 04:16:05;;;;;;;20.48;18.33;;;5.80;99.90;;;;;;2035245;29;20132;-73
2023/03/06 04:17:06;;;;;;;20.33;18.23;;;5.80;99.90;;;;;;2039026;29;20043;-73
2023/03/06 04:18:06;;;;;;;20.35;18.25;;;5.80;99.90;;;;;;2036021;29;20031;-73
2023/03/06 04:19:07;;;;;;;20.77;18.60;;;5.80;99.90;;;;;;2037977;29;20106;-73
2023/03/06 04:20:08;;;;;;;19.33;17.30;;;5.80;99.90;;;;;;2036701;29;20036;-73
2023/03/06 04:21:08;;;;;;;19.45;17.50;;;5.80;99.90;;;;;;2038263;29;20055;-72
2023/03/06 04:22:09;;;;;;;21.05;17.65;;;5.80;99.90;;;;;;2037456;29;20456;-73
2023/03/06 04:23:10;;;;;;;19.27;16.60;;;5.80;99.90;;;;;;2037314;29;20542;-73
2023/03/06 04:24:10;;;;;;;17.58;15.77;;;5.70;99.90;;;;;;2037681;29;20665;-73
2023/03/06 04:25:11;;;;;;;17.25;14.73;;;5.70;99.90;;;;;;2036814;29;20032;-73
2023/03/06 04:26:11;;;;;;;16.65;13.90;;;5.80;99.90;;;;;;2038010;29;20048;-73
2023/03/06 04:27:12;;;;;;;15.23;13.68;;;5.70;99.90;;;;;;2037470;29;20078;-73
2023/03/06 04:28:13;;;;;;;15.18;13.40;;;5.70;99.90;;;;;;2036348;29;20040;-73
2023/03/06 04:29:13;;;;;;;13.90;12.25;;;5.70;99.90;;;;;;2037868;29;20034;-73
2023/03/06 04:30:14;;;;;;;14.05;12.70;;;5.70;99.90;;;;;;2037380;29;20501;-73
2023/03/06 04:31:14;;;;;;;13.82;12.30;;;5.80;99.90;;;;;;2036412;29;20024;-73
2023/03/06 04:32:15;;;;;;;13.10;11.70;;;5.70;99.90;;;;;;2038639;29;20035;-73
2023/03/06 04:33:16;;;;;;;12.90;11.35;;;5.70;99.90;;;;;;2037234;29;20087;-73
2023/03/06 04:34:16;;;;;;;14.45;11.35;;;5.70;99.90;;;;;;2038917;29;20495;-73
2023/03/06 04:35:17;;;;;;;11.90;10.65;;;5.70;99.90;;;;;;2037756;29;20023;-73
2023/03/06 04:36:25;;;;;;;13.73;10.45;;;5.70;99.90;;;;;;2038348;29;20032;-73
2023/03/06 04:37:25;;;;;;;11.95;10.13;;;5.70;99.90;;;;;;2028299;29;20029;-73
2023/03/06 04:38:26;;;;;;;12.45;11.07;;;5.70;99.90;;;;;;2028012;29;20063;-73
2023/03/06 04:39:27;;;;;;;13.48;11.48;;;5.70;99.90;;;;;;2036674;29;20368;-73
2023/03/06 04:40:29;;;;;;;12.23;10.50;;;5.70;99.90;;;;;;2036469;29;20032;-73
2023/03/06 04:41:30;;;;;;;11.65;9.98;;;5.70;99.90;;;;;;2037544;29;20036;-73
2023/03/06 04:42:30;;;;;;;11.55;10.45;;;5.60;99.90;;;;;;2035646;29;20107;-73
2023/03/06 04:43:31;;;;;;;15.13;11.55;;;5.70;99.90;;;;;;2036541;29;20916;-73
2023/03/06 04:44:31;;;;;;;11.50;10.40;;;5.60;99.90;;;;;;2036913;29;20036;-73
2023/03/06 04:45:33;;;;;;;12.25;10.38;;;5.60;99.90;;;;;;2035549;29;20038;-73
2023/03/06 04:46:34;;;;;;;10.70;9.55;;;5.60;99.90;;;;;;2035630;29;20024;-73
2023/03/06 04:47:35;;;;;;;11.63;9.38;;;5.60;99.90;;;;;;2036380;29;20024;-73
2023/03/06 04:48:35;;;;;;;9.23;8.27;;;5.60;99.90;;;;;;2036419;29;20047;-73
2023/03/06 04:49:36;;;;;;;10.75;8.73;;;5.60;99.90;;;;;;2037515;29;20030;-73
2023/03/06 04:50:37;;;;;;;12.27;8.88;;;5.60;99.90;;;;;;2036560;29;20048;-73
2023/03/06 04:51:37;;;;;;;9.90;8.65;;;5.60;99.90;;;;;;2039075;29;20042;-73
2023/03/06 04:52:39;;;;;;;11.43;8.27;;;5.60;99.90;;;;;;2037900;29;20019;-73
2023/03/06 04:53:39;;;;;;;10.05;8.20;;;5.60;99.90;;;;;;2037277;29;20027;-73
2023/03/06 04:54:41;;;;;;;10.40;8.65;;;5.60;99.90;;;;;;2037782;29;20032;-73
2023/03/06 04:55:42;;;;;;;11.63;8.05;;;5.60;99.90;;;;;;2037613;29;20088;-73
2023/03/06 04:56:42;;;;;;;9.35;7.63;;;5.50;99.90;;;;;;2037546;29;20102;-73
2023/03/06 04:57:44;;;;;;;9.68;7.45;;;5.60;99.90;;;;;;2036571;29;20023;-73
2023/03/06 04:58:45;;;;;;;9.57;7.78;;;5.60;99.90;;;;;;2035613;29;20128;-73
2023/03/06 04:59:45;;;;;;;13.68;8.15;;;5.50;99.90;;;;;;2037124;29;20023;-73
2023/03/06 05:00:46;;;;;;;8.50;7.60;;;5.60;99.90;;;;;;2036562;29;20043;-73
2023/03/06 05:01:46;;;;;;;9.80;7.35;;;5.60;99.90;;;;;;2036859;29;20489;-73
2023/03/06 05:02:48;;;;;;;9.85;6.93;;;5.60;99.90;;;;;;2036400;29;20036;-73
2023/03/06 05:03:48;;;;;;;8.27;6.43;;;5.60;99.90;;;;;;2036626;29;20047;-73
2023/03/06 05:04:49;;;;;;;7.65;6.85;;;5.60;99.90;;;;;;2036229;29;20020;-73
2023/03/06 05:05:49;;;;;;;9.63;6.88;;;5.60;99.90;;;;;;2037948;29;20131;-73
2023/03/06 05:06:50;;;;;;;8.73;6.50;;;5.50;99.90;;;;;;2037181;29;20036;-73
2023/03/06 05:07:51;;;;;;;8.30;7.32;;;5.50;99.90;;;;;;2034108;29;20028;-73
2023/03/06 05:08:52;;;;;;;8.82;7.38;;;5.50;99.90;;;;;;2036952;29;20036;-73
2023/03/06 05:09:52;;;;;;;9.50;6.80;;;5.50;99.90;;;;;;2035956;29;20032;-73
2023/03/06 05:11:02;;;;;;;9.10;7.30;;;5.50;99.90;;;;;;2035775;29;20034;-73
2023/03/06 05:12:03;;;;;;;8.23;7.20;;;5.60;99.90;;;;;;2036924;29;20039;-73
2023/03/06 05:13:04;;;;;;;8.25;7.38;;;5.60;99.90;;;;;;2036169;29;20028;-73
2023/03/06 05:14:05;;;;;;;9.43;8.45;;;5.50;99.90;;;;;;2026492;29;20024;-73
2023/03/06 05:15:07;;;;;;;9.50;7.88;;;5.50;99.90;;;;;;2027997;29;20180;-73
2023/03/06 05:16:08;;;;;;;10.38;8.15;;;5.50;99.90;;;;;;2035720;29;20025;-73
2023/03/06 05:17:08;;;;;;;9.32;8.13;;;5.60;99.90;;;;;;2038234;29;20115;-73